Phenix, Virginia
Current Conditions -  °F | °C
As of 5:55 PM on Wednesday 22 Oct 2014 (Local Time) from K0V4 Reporting Station
Overcast Overcast  
Wind Chill: 63°   Ceiling: 7500
Heat Index: 63°   Visibility: 10mi
Dew Point: 45°   Wind: 16mph
Humidity: 52%   Direction: 340°NNW
Pressure: 29.98"   Gusts: 28mph
Location:  37.08°N, 78.75°W
Report Text: K0V4 222155Z AUTO 34014G24KT 10SM SCT065 OVC075 17/07 A2998 RMK AO1 T01700071
Loading
Personal Weather Stations






























Interactive Weather Map
Tropical Storm Tracking
New forecast layout! Learn more

10-Day Weather Forecast

Advertisements
Track Severe Weather on mobile